Ifestos I — SV4139 — position and weather

sailwx.info

Track history (hours):
 
Tides and Currents Weather Stations Pressure Air Temp Water Temp Dewpoint Dewpoint Depression Visibility Wind Speed Wind Dir Waves Ship Positions

Ifestos I

Last reported at 2015-Apr-19 00:24 UTC. Time now 2015-Apr-19 12:40 UTC.
Position N 37°57' E 023°37'.

Length 30 m.

Type: Tug. MMSI: 237070500.

Date/timePositionNaut miles runAvg speedWind from/ knotsBaromVisibWave heightAir tempDewpointWater temp
2015-Apr-19 00:24N 37°57' E 023°37'0 0.0
2015-Apr-18 23:33N 37°57' E 023°37'0 0.0
2015-Apr-18 22:33N 37°57' E 023°37'0 0.0
2015-Apr-18 21:33N 37°57' E 023°37'0 0.0
2015-Apr-18 20:33N 37°57' E 023°37'0 0.0
2015-Apr-18 19:33N 37°57' E 023°37'0 0.0
2015-Apr-18 18:33N 37°57' E 023°37'0 0.0
2015-Apr-18 17:33N 37°57' E 023°37'0 0.0
2015-Apr-18 16:33N 37°57' E 023°37'0 0.0
2015-Apr-18 15:33N 37°57' E 023°37'0 0.0
2015-Apr-18 14:33N 37°57' E 023°37'0 0.0
2015-Apr-18 13:33N 37°57' E 023°37'0 0.0
2015-Apr-18 12:33N 37°57' E 023°37'0 0.0
2015-Apr-18 11:33N 37°57' E 023°37'0 0.0
2015-Apr-18 10:33N 37°57' E 023°37'0 0.0
2015-Apr-18 09:33N 37°57' E 023°37'0 0.0
2015-Apr-18 08:33N 37°57' E 023°37'0 0.0
2015-Apr-18 07:33N 37°57' E 023°37'0 0.0
2015-Apr-18 06:33N 37°57' E 023°37'0 0.0
2015-Apr-18 05:33N 37°57' E 023°37'0 0.0
2015-Apr-18 04:33N 37°57' E 023°37'0 0.0
2015-Apr-18 03:33N 37°57' E 023°37'0 0.0
2015-Apr-18 02:33N 37°57' E 023°37'0 0.0
2015-Apr-18 01:33N 37°57' E 023°37'0 0.0
2015-Apr-18 00:33N 37°57' E 023°37'0 0.0
2015-Apr-17 23:33N 37°57' E 023°37'0 0.0
2015-Apr-17 22:33N 37°57' E 023°37'0 0.0
2015-Apr-17 21:33N 37°57' E 023°37'0 0.0
2015-Apr-17 20:33N 37°57' E 023°37'0 0.0
2015-Apr-17 19:33N 37°57' E 023°37'0 0.0
2015-Apr-17 18:33N 37°57' E 023°37'0 0.0
2015-Apr-17 17:33N 37°57' E 023°37'0 0.0
2015-Apr-17 16:33N 37°57' E 023°37'0 0.0
2015-Apr-17 15:33N 37°57' E 023°37'0 0.0
2015-Apr-17 14:33N 37°57' E 023°37'0 0.0
2015-Apr-17 13:33N 37°57' E 023°37'0 0.0
2015-Apr-17 12:33N 37°57' E 023°37'0 0.0
2015-Apr-17 11:33N 37°57' E 023°37'0 0.0
2015-Apr-17 10:33N 37°57' E 023°37'0 0.0
2015-Apr-17 09:33N 37°57' E 023°37'0 0.4
2015-Apr-17 08:33N 37°57' E 023°36'2 2.3
2015-Apr-17 07:33N 37°58' E 023°33'0 0.1
2015-Apr-17 05:28N 37°58' E 023°33'3 3.4
2015-Apr-17 04:33N 37°56' E 023°37'1 0.7
2015-Apr-17 03:16N 37°56' E 023°38'2 0.3
2015-Apr-16 21:20N 37°57' E 023°37'0 0.0
2015-Apr-16 19:14N 37°57' E 023°37'0 0.1
2015-Apr-16 10:33N 37°57' E 023°36'0 0.3
2015-Apr-16 09:10N 37°57' E 023°37'0 0.0
2015-Apr-16 08:33N 37°57' E 023°37'0 0.0
2015-Apr-16 07:33N 37°57' E 023°37'0 0.0
2015-Apr-16 06:33N 37°57' E 023°37'0 0.0
2015-Apr-16 05:13N 37°57' E 023°37'1 0.9
2015-Apr-16 04:33N 37°57' E 023°36'0 0.3
2015-Apr-16 03:33N 37°57' E 023°36'0 0.1
2015-Apr-15 20:33N 37°57' E 023°37'0 0.0
2015-Apr-15 19:33N 37°57' E 023°37'0 0.0
2015-Apr-15 18:33N 37°57' E 023°37'0 0.0
2015-Apr-15 10:33N 37°57' E 023°36'3 2.5
2015-Apr-15 09:28N 37°58' E 023°33'0 0.0
2015-Apr-15 04:06N 37°58' E 023°33'2 4.1
2015-Apr-15 03:33N 37°57' E 023°36'1 0.3
2015-Apr-15 00:33N 37°57' E 023°37'0 0.0
2015-Apr-14 23:33N 37°57' E 023°37'0 0.0
2015-Apr-14 22:33N 37°57' E 023°37'0 0.0
2015-Apr-14 21:33N 37°57' E 023°37'0 0.0
2015-Apr-14 20:33N 37°57' E 023°37'0 0.0
2015-Apr-14 19:33N 37°57' E 023°37'0 0.0
2015-Apr-14 18:33N 37°57' E 023°37'0 0.0
2015-Apr-14 17:33N 37°57' E 023°37'0 0.0
2015-Apr-14 16:33N 37°57' E 023°37'0 0.0
2015-Apr-14 15:33N 37°57' E 023°37'0 0.0
2015-Apr-14 14:33N 37°57' E 023°37'0 0.0
2015-Apr-14 13:33N 37°57' E 023°37'0 0.0
2015-Apr-14 12:33N 37°57' E 023°37'0 0.0
2015-Apr-14 11:33N 37°57' E 023°37'0 0.2
2015-Apr-14 10:33N 37°58' E 023°37'2 1.8
2015-Apr-14 09:33N 37°56' E 023°38'0 0.0
2015-Apr-14 08:33N 37°56' E 023°38'0 0.0
2015-Apr-14 07:33N 37°56' E 023°38'0 0.0
2015-Apr-14 06:33N 37°56' E 023°38'0 0.0
2015-Apr-14 05:33N 37°56' E 023°38'0 0.2
2015-Apr-14 04:33N 37°57' E 023°38'2 1.5
2015-Apr-14 03:33N 37°56' E 023°37'2 1.6
2015-Apr-14 02:33N 37°57' E 023°37'0 0.0
2015-Apr-14 01:33N 37°57' E 023°37'0 0.0
2015-Apr-14 00:33N 37°57' E 023°37'0 0.0
2015-Apr-13 23:33N 37°57' E 023°37'0 0.0
2015-Apr-13 22:33N 37°57' E 023°37'0 0.0
2015-Apr-13 21:33N 37°57' E 023°37'0 0.0
2015-Apr-13 20:33N 37°57' E 023°37'0 0.0
2015-Apr-13 19:33N 37°57' E 023°37'0 0.0
2015-Apr-13 18:33N 37°57' E 023°37'0 0.0
2015-Apr-13 17:33N 37°57' E 023°37'0 0.0
2015-Apr-13 16:33N 37°57' E 023°37'0 0.0
2015-Apr-13 15:33N 37°57' E 023°37'0 0.0
2015-Apr-13 14:33N 37°57' E 023°37'0 0.0
2015-Apr-13 13:33N 37°57' E 023°37'0 0.0
2015-Apr-13 12:33N 37°57' E 023°37'0 0.0
2015-Apr-13 11:33N 37°57' E 023°37'0 0.3
2015-Apr-13 10:33N 37°58' E 023°36'1 1.1
2015-Apr-13 09:33N 37°57' E 023°36'2 2.4
2015-Apr-13 08:33N 37°58' E 023°33'5 4.5
2015-Apr-13 07:33N 38°02' E 023°36'3 2.5
2015-Apr-13 06:30N 38°02' E 023°32'1 0.9
2015-Apr-13 05:32N 38°02' E 023°31'1 0.8
2015-Apr-13 04:33N 38°02' E 023°32'6 5.9
2015-Apr-13 03:33N 37°57' E 023°37'0 0.0
2015-Apr-13 02:33N 37°57' E 023°37'0 0.0
2015-Apr-13 01:33N 37°57' E 023°37'0 0.0
2015-Apr-13 00:33N 37°57' E 023°37'0 0.0
2015-Apr-12 23:33N 37°57' E 023°37'0 0.0
2015-Apr-12 22:33N 37°57' E 023°37'0 0.0
2015-Apr-12 21:33N 37°57' E 023°37'0 0.0
2015-Apr-12 20:33N 37°57' E 023°37'0 0.0
2015-Apr-12 19:33N 37°57' E 023°37'0 0.0
2015-Apr-12 18:33N 37°57' E 023°37'0 0.0
2015-Apr-12 17:33N 37°57' E 023°37'0 0.0
2015-Apr-12 16:33N 37°57' E 023°37'0 0.0
2015-Apr-12 15:33N 37°57' E 023°37'0 0.0
2015-Apr-12 14:33N 37°57' E 023°37'0 0.0
2015-Apr-12 13:33N 37°57' E 023°37'0 0.0
2015-Apr-12 12:33N 37°57' E 023°37'0 0.0
2015-Apr-12 11:33N 37°57' E 023°37'0 0.0
2015-Apr-12 10:33N 37°57' E 023°37'0 0.0
2015-Apr-12 09:33N 37°57' E 023°37'0 0.0
2015-Apr-12 08:33N 37°57' E 023°37'0 0.0
2015-Apr-12 07:33N 37°57' E 023°37'0 0.0
2015-Apr-12 06:33N 37°57' E 023°37'0 0.0
2015-Apr-12 05:33N 37°57' E 023°37'0 0.0
2015-Apr-12 04:33N 37°57' E 023°37'0 0.0
2015-Apr-12 03:33N 37°57' E 023°37'0 0.0
2015-Apr-12 02:33N 37°57' E 023°37'0 0.0
2015-Apr-12 01:33N 37°57' E 023°37'0 0.0
2015-Apr-12 00:33N 37°57' E 023°37'0 0.0
2015-Apr-11 23:32N 37°57' E 023°37'0 0.0
2015-Apr-11 22:33N 37°57' E 023°37'0 0.0
2015-Apr-11 21:33N 37°57' E 023°37'0 0.0
2015-Apr-11 20:33N 37°57' E 023°37'0 0.0
2015-Apr-11 19:33N 37°57' E 023°37'0 0.0
2015-Apr-11 18:33N 37°57' E 023°37'0 0.0
2015-Apr-11 17:33N 37°57' E 023°37'0 0.0
2015-Apr-11 16:33N 37°57' E 023°37'0 0.0
2015-Apr-11 15:33N 37°57' E 023°37'0 0.0
2015-Apr-11 14:33N 37°57' E 023°37'0 0.0
2015-Apr-11 13:33N 37°57' E 023°37'0 0.0
2015-Apr-11 12:33N 37°57' E 023°37'0 0.0
2015-Apr-11 11:33N 37°57' E 023°37'0 0.0
2015-Apr-11 10:33N 37°57' E 023°37'0 0.0
2015-Apr-11 09:33N 37°57' E 023°37'0 0.0
2015-Apr-11 08:33N 37°57' E 023°37'0 0.0
2015-Apr-11 07:33N 37°57' E 023°37'0 0.0
2015-Apr-11 06:33N 37°57' E 023°37'0 0.0
2015-Apr-11 05:33N 37°57' E 023°37'0 0.0
2015-Apr-11 04:33N 37°57' E 023°37'0 0.0
2015-Apr-11 03:33N 37°57' E 023°37'0 0.0
2015-Apr-11 02:33N 37°57' E 023°37'0 0.0
2015-Apr-11 01:33N 37°57' E 023°37'0 0.0
2015-Apr-11 00:34N 37°57' E 023°37'0 0.0
2015-Apr-10 23:33N 37°57' E 023°37'0 0.0
2015-Apr-10 22:33N 37°57' E 023°37'0 0.0
2015-Apr-10 21:33N 37°57' E 023°37'0 0.0
2015-Apr-10 20:33N 37°57' E 023°37'0 0.0
2015-Apr-10 19:33N 37°57' E 023°37'0 0.0
2015-Apr-10 18:33N 37°57' E 023°37'0 0.0
2015-Apr-10 17:33N 37°57' E 023°37'0 0.0
2015-Apr-10 16:33N 37°57' E 023°37'0 0.0
2015-Apr-10 15:33N 37°57' E 023°37'0 0.0
2015-Apr-10 14:33N 37°57' E 023°37'0 0.0
2015-Apr-10 13:33N 37°57' E 023°37'0 0.0
2015-Apr-10 12:33N 37°57' E 023°37'0 0.0
2015-Apr-10 11:33N 37°57' E 023°37'0 0.0
2015-Apr-10 10:33N 37°57' E 023°37'0 0.0
2015-Apr-10 09:33N 37°57' E 023°37'0 0.0
2015-Apr-10 08:33N 37°57' E 023°37'0 0.0
2015-Apr-10 07:33N 37°57' E 023°37'0 0.0
2015-Apr-10 06:33N 37°57' E 023°37'5 4.8
2015-Apr-10 05:33N 38°01' E 023°32'2 1.9
2015-Apr-10 04:33N 38°02' E 023°31'0 0.0
2015-Apr-09 23:10N 38°02' E 023°31'0 0.0
2015-Apr-09 21:24N 38°02' E 023°31'0 0.0
2015-Apr-09 19:29N 38°02' E 023°31'0 0.0
2015-Apr-09 18:33N 38°02' E 023°31'0 0.0
2015-Apr-09 17:32N 38°02' E 023°31'0 0.0
2015-Apr-09 16:30N 38°02' E 023°31'0 0.0
2015-Apr-09 15:30N 38°02' E 023°31'0 0.0
2015-Apr-09 14:31N 38°02' E 023°31'0 0.0
2015-Apr-09 13:33N 38°02' E 023°31'0 0.0
2015-Apr-09 12:28N 38°02' E 023°31'0 0.0
2015-Apr-09 11:32N 38°02' E 023°31'0 0.0
2015-Apr-09 10:33N 38°02' E 023°31'0 0.0
2015-Apr-09 09:28N 38°02' E 023°31'0 0.0
2015-Apr-09 08:19N 38°02' E 023°31'0 0.0
2015-Apr-09 07:31N 38°02' E 023°31'0 0.0
2015-Apr-09 06:32N 38°02' E 023°31'0 0.0
2015-Apr-09 05:32N 38°02' E 023°31'0 0.0
2015-Apr-09 04:24N 38°02' E 023°31'0 0.0
2015-Apr-09 03:33N 38°02' E 023°31'0 0.0
2015-Apr-09 02:20N 38°02' E 023°31'0 0.0
2015-Apr-09 01:32N 38°02' E 023°31'  
Track history (hours):
 
Tides and Currents Weather Stations Pressure Air Temp Water Temp Dewpoint Dewpoint Depression Visibility Wind Speed Wind Dir Waves Ship Positions

Ifestos I

Last reported at 2015-Apr-19 00:24 UTC. Time now 2015-Apr-19 12:40 UTC.
Position N 37°57' E 023°37'.

Length 30 m.

Type: Tug. MMSI: 237070500.

Date/timePositionNaut miles runAvg speedWind from/ knotsBaromVisibWave heightAir tempDewpointWater temp
2015-Apr-19 00:24N 37°57' E 023°37'0 0.0
2015-Apr-18 23:33N 37°57' E 023°37'0 0.0
2015-Apr-18 22:33N 37°57' E 023°37'0 0.0
2015-Apr-18 21:33N 37°57' E 023°37'0 0.0
2015-Apr-18 20:33N 37°57' E 023°37'0 0.0
2015-Apr-18 19:33N 37°57' E 023°37'0 0.0
2015-Apr-18 18:33N 37°57' E 023°37'0 0.0
2015-Apr-18 17:33N 37°57' E 023°37'0 0.0
2015-Apr-18 16:33N 37°57' E 023°37'0 0.0
2015-Apr-18 15:33N 37°57' E 023°37'0 0.0
2015-Apr-18 14:33N 37°57' E 023°37'0 0.0
2015-Apr-18 13:33N 37°57' E 023°37'0 0.0
2015-Apr-18 12:33N 37°57' E 023°37'0 0.0
2015-Apr-18 11:33N 37°57' E 023°37'0 0.0
2015-Apr-18 10:33N 37°57' E 023°37'0 0.0
2015-Apr-18 09:33N 37°57' E 023°37'0 0.0
2015-Apr-18 08:33N 37°57' E 023°37'0 0.0
2015-Apr-18 07:33N 37°57' E 023°37'0 0.0
2015-Apr-18 06:33N 37°57' E 023°37'0 0.0
2015-Apr-18 05:33N 37°57' E 023°37'0 0.0
2015-Apr-18 04:33N 37°57' E 023°37'0 0.0
2015-Apr-18 03:33N 37°57' E 023°37'0 0.0
2015-Apr-18 02:33N 37°57' E 023°37'0 0.0
2015-Apr-18 01:33N 37°57' E 023°37'0 0.0
2015-Apr-18 00:33N 37°57' E 023°37'0 0.0
2015-Apr-17 23:33N 37°57' E 023°37'0 0.0
2015-Apr-17 22:33N 37°57' E 023°37'0 0.0
2015-Apr-17 21:33N 37°57' E 023°37'0 0.0
2015-Apr-17 20:33N 37°57' E 023°37'0 0.0
2015-Apr-17 19:33N 37°57' E 023°37'0 0.0
2015-Apr-17 18:33N 37°57' E 023°37'0 0.0
2015-Apr-17 17:33N 37°57' E 023°37'0 0.0
2015-Apr-17 16:33N 37°57' E 023°37'0 0.0
2015-Apr-17 15:33N 37°57' E 023°37'0 0.0
2015-Apr-17 14:33N 37°57' E 023°37'0 0.0
2015-Apr-17 13:33N 37°57' E 023°37'0 0.0
2015-Apr-17 12:33N 37°57' E 023°37'0 0.0
2015-Apr-17 11:33N 37°57' E 023°37'0 0.0
2015-Apr-17 10:33N 37°57' E 023°37'0 0.0
2015-Apr-17 09:33N 37°57' E 023°37'0 0.4
2015-Apr-17 08:33N 37°57' E 023°36'2 2.3
2015-Apr-17 07:33N 37°58' E 023°33'0 0.1
2015-Apr-17 05:28N 37°58' E 023°33'3 3.4
2015-Apr-17 04:33N 37°56' E 023°37'1 0.7
2015-Apr-17 03:16N 37°56' E 023°38'2 0.3
2015-Apr-16 21:20N 37°57' E 023°37'0 0.0
2015-Apr-16 19:14N 37°57' E 023°37'0 0.1
2015-Apr-16 10:33N 37°57' E 023°36'0 0.3
2015-Apr-16 09:10N 37°57' E 023°37'0 0.0
2015-Apr-16 08:33N 37°57' E 023°37'0 0.0
2015-Apr-16 07:33N 37°57' E 023°37'0 0.0
2015-Apr-16 06:33N 37°57' E 023°37'0 0.0
2015-Apr-16 05:13N 37°57' E 023°37'1 0.9
2015-Apr-16 04:33N 37°57' E 023°36'0 0.3
2015-Apr-16 03:33N 37°57' E 023°36'0 0.1
2015-Apr-15 20:33N 37°57' E 023°37'0 0.0
2015-Apr-15 19:33N 37°57' E 023°37'0 0.0
2015-Apr-15 18:33N 37°57' E 023°37'0 0.0
2015-Apr-15 10:33N 37°57' E 023°36'3 2.5
2015-Apr-15 09:28N 37°58' E 023°33'0 0.0
2015-Apr-15 04:06N 37°58' E 023°33'2 4.1
2015-Apr-15 03:33N 37°57' E 023°36'1 0.3
2015-Apr-15 00:33N 37°57' E 023°37'0 0.0
2015-Apr-14 23:33N 37°57' E 023°37'0 0.0
2015-Apr-14 22:33N 37°57' E 023°37'0 0.0
2015-Apr-14 21:33N 37°57' E 023°37'0 0.0
2015-Apr-14 20:33N 37°57' E 023°37'0 0.0
2015-Apr-14 19:33N 37°57' E 023°37'0 0.0
2015-Apr-14 18:33N 37°57' E 023°37'0 0.0
2015-Apr-14 17:33N 37°57' E 023°37'0 0.0
2015-Apr-14 16:33N 37°57' E 023°37'0 0.0
2015-Apr-14 15:33N 37°57' E 023°37'0 0.0
2015-Apr-14 14:33N 37°57' E 023°37'0 0.0
2015-Apr-14 13:33N 37°57' E 023°37'0 0.0
2015-Apr-14 12:33N 37°57' E 023°37'0 0.0
2015-Apr-14 11:33N 37°57' E 023°37'0 0.2
2015-Apr-14 10:33N 37°58' E 023°37'2 1.8
2015-Apr-14 09:33N 37°56' E 023°38'0 0.0
2015-Apr-14 08:33N 37°56' E 023°38'0 0.0
2015-Apr-14 07:33N 37°56' E 023°38'0 0.0
2015-Apr-14 06:33N 37°56' E 023°38'0 0.0
2015-Apr-14 05:33N 37°56' E 023°38'0 0.2
2015-Apr-14 04:33N 37°57' E 023°38'2 1.5
2015-Apr-14 03:33N 37°56' E 023°37'2 1.6
2015-Apr-14 02:33N 37°57' E 023°37'0 0.0
2015-Apr-14 01:33N 37°57' E 023°37'0 0.0
2015-Apr-14 00:33N 37°57' E 023°37'0 0.0
2015-Apr-13 23:33N 37°57' E 023°37'0 0.0
2015-Apr-13 22:33N 37°57' E 023°37'0 0.0
2015-Apr-13 21:33N 37°57' E 023°37'0 0.0
2015-Apr-13 20:33N 37°57' E 023°37'0 0.0
2015-Apr-13 19:33N 37°57' E 023°37'0 0.0
2015-Apr-13 18:33N 37°57' E 023°37'0 0.0
2015-Apr-13 17:33N 37°57' E 023°37'0 0.0
2015-Apr-13 16:33N 37°57' E 023°37'0 0.0
2015-Apr-13 15:33N 37°57' E 023°37'0 0.0
2015-Apr-13 14:33N 37°57' E 023°37'0 0.0
2015-Apr-13 13:33N 37°57' E 023°37'0 0.0
2015-Apr-13 12:33N 37°57' E 023°37'0 0.0
2015-Apr-13 11:33N 37°57' E 023°37'0 0.3
2015-Apr-13 10:33N 37°58' E 023°36'1 1.1
2015-Apr-13 09:33N 37°57' E 023°36'2 2.4
2015-Apr-13 08:33N 37°58' E 023°33'5 4.5
2015-Apr-13 07:33N 38°02' E 023°36'3 2.5
2015-Apr-13 06:30N 38°02' E 023°32'1 0.9
2015-Apr-13 05:32N 38°02' E 023°31'1 0.8
2015-Apr-13 04:33N 38°02' E 023°32'6 5.9
2015-Apr-13 03:33N 37°57' E 023°37'0 0.0
2015-Apr-13 02:33N 37°57' E 023°37'0 0.0
2015-Apr-13 01:33N 37°57' E 023°37'0 0.0
2015-Apr-13 00:33N 37°57' E 023°37'0 0.0
2015-Apr-12 23:33N 37°57' E 023°37'0 0.0
2015-Apr-12 22:33N 37°57' E 023°37'0 0.0
2015-Apr-12 21:33N 37°57' E 023°37'0 0.0
2015-Apr-12 20:33N 37°57' E 023°37'0 0.0
2015-Apr-12 19:33N 37°57' E 023°37'0 0.0
2015-Apr-12 18:33N 37°57' E 023°37'0 0.0
2015-Apr-12 17:33N 37°57' E 023°37'0 0.0
2015-Apr-12 16:33N 37°57' E 023°37'0 0.0
2015-Apr-12 15:33N 37°57' E 023°37'0 0.0
2015-Apr-12 14:33N 37°57' E 023°37'0 0.0
2015-Apr-12 13:33N 37°57' E 023°37'0 0.0
2015-Apr-12 12:33N 37°57' E 023°37'0 0.0
2015-Apr-12 11:33N 37°57' E 023°37'0 0.0
2015-Apr-12 10:33N 37°57' E 023°37'0 0.0
2015-Apr-12 09:33N 37°57' E 023°37'0 0.0
2015-Apr-12 08:33N 37°57' E 023°37'0 0.0
2015-Apr-12 07:33N 37°57' E 023°37'0 0.0
2015-Apr-12 06:33N 37°57' E 023°37'0 0.0
2015-Apr-12 05:33N 37°57' E 023°37'0 0.0
2015-Apr-12 04:33N 37°57' E 023°37'0 0.0
2015-Apr-12 03:33N 37°57' E 023°37'0 0.0
2015-Apr-12 02:33N 37°57' E 023°37'0 0.0
2015-Apr-12 01:33N 37°57' E 023°37'0 0.0
2015-Apr-12 00:33N 37°57' E 023°37'0 0.0
2015-Apr-11 23:32N 37°57' E 023°37'0 0.0
2015-Apr-11 22:33N 37°57' E 023°37'0 0.0
2015-Apr-11 21:33N 37°57' E 023°37'0 0.0
2015-Apr-11 20:33N 37°57' E 023°37'0 0.0
2015-Apr-11 19:33N 37°57' E 023°37'0 0.0
2015-Apr-11 18:33N 37°57' E 023°37'0 0.0
2015-Apr-11 17:33N 37°57' E 023°37'0 0.0
2015-Apr-11 16:33N 37°57' E 023°37'0 0.0
2015-Apr-11 15:33N 37°57' E 023°37'0 0.0
2015-Apr-11 14:33N 37°57' E 023°37'0 0.0
2015-Apr-11 13:33N 37°57' E 023°37'0 0.0
2015-Apr-11 12:33N 37°57' E 023°37'0 0.0
2015-Apr-11 11:33N 37°57' E 023°37'0 0.0
2015-Apr-11 10:33N 37°57' E 023°37'0 0.0
2015-Apr-11 09:33N 37°57' E 023°37'0 0.0
2015-Apr-11 08:33N 37°57' E 023°37'0 0.0
2015-Apr-11 07:33N 37°57' E 023°37'0 0.0
2015-Apr-11 06:33N 37°57' E 023°37'0 0.0
2015-Apr-11 05:33N 37°57' E 023°37'0 0.0
2015-Apr-11 04:33N 37°57' E 023°37'0 0.0
2015-Apr-11 03:33N 37°57' E 023°37'0 0.0
2015-Apr-11 02:33N 37°57' E 023°37'0 0.0
2015-Apr-11 01:33N 37°57' E 023°37'0 0.0
2015-Apr-11 00:34N 37°57' E 023°37'0 0.0
2015-Apr-10 23:33N 37°57' E 023°37'0 0.0
2015-Apr-10 22:33N 37°57' E 023°37'0 0.0
2015-Apr-10 21:33N 37°57' E 023°37'0 0.0
2015-Apr-10 20:33N 37°57' E 023°37'0 0.0
2015-Apr-10 19:33N 37°57' E 023°37'0 0.0
2015-Apr-10 18:33N 37°57' E 023°37'0 0.0
2015-Apr-10 17:33N 37°57' E 023°37'0 0.0
2015-Apr-10 16:33N 37°57' E 023°37'0 0.0
2015-Apr-10 15:33N 37°57' E 023°37'0 0.0
2015-Apr-10 14:33N 37°57' E 023°37'0 0.0
2015-Apr-10 13:33N 37°57' E 023°37'0 0.0
2015-Apr-10 12:33N 37°57' E 023°37'0 0.0
2015-Apr-10 11:33N 37°57' E 023°37'0 0.0
2015-Apr-10 10:33N 37°57' E 023°37'0 0.0
2015-Apr-10 09:33N 37°57' E 023°37'0 0.0
2015-Apr-10 08:33N 37°57' E 023°37'0 0.0
2015-Apr-10 07:33N 37°57' E 023°37'0 0.0
2015-Apr-10 06:33N 37°57' E 023°37'5 4.8
2015-Apr-10 05:33N 38°01' E 023°32'2 1.9
2015-Apr-10 04:33N 38°02' E 023°31'0 0.0
2015-Apr-09 23:10N 38°02' E 023°31'0 0.0
2015-Apr-09 21:24N 38°02' E 023°31'0 0.0
2015-Apr-09 19:29N 38°02' E 023°31'0 0.0
2015-Apr-09 18:33N 38°02' E 023°31'0 0.0
2015-Apr-09 17:32N 38°02' E 023°31'0 0.0
2015-Apr-09 16:30N 38°02' E 023°31'0 0.0
2015-Apr-09 15:30N 38°02' E 023°31'0 0.0
2015-Apr-09 14:31N 38°02' E 023°31'0 0.0
2015-Apr-09 13:33N 38°02' E 023°31'0 0.0
2015-Apr-09 12:28N 38°02' E 023°31'0 0.0
2015-Apr-09 11:32N 38°02' E 023°31'0 0.0
2015-Apr-09 10:33N 38°02' E 023°31'0 0.0
2015-Apr-09 09:28N 38°02' E 023°31'0 0.0
2015-Apr-09 08:19N 38°02' E 023°31'0 0.0
2015-Apr-09 07:31N 38°02' E 023°31'0 0.0
2015-Apr-09 06:32N 38°02' E 023°31'0 0.0
2015-Apr-09 05:32N 38°02' E 023°31'0 0.0
2015-Apr-09 04:24N 38°02' E 023°31'0 0.0
2015-Apr-09 03:33N 38°02' E 023°31'0 0.0
2015-Apr-09 02:20N 38°02' E 023°31'0 0.0
2015-Apr-09 01:32N 38°02' E 023°31'  

Dump ship's entire track history